A- A+ FrançaisEnglishEspañol中国

最近的 GCTS Tenerife Sur Reina SofiaKDCA Ronald Reagan Washington NationalWIMM MedanLTAE Ankara MurtedLTAD Etimesgut AB AnkaraLFBT Tarbes-Lourdes-Pyrénées

飞行员的航空天气,使用METAR(气象机场报告)进行的飞行准备和TAF(终端机场预报:针对以下情况的短期天气预报)航空)。 以及其他资源,例如VAC(目视进近图)和NOTAM(通知飞行员)以进行预试飞行.

METAR, TAF, VAC, NOTAM Baker Mun机场 (美国) / OACI KBHK

它位于附近 Baker, Baker 在 2.9 km, Ekalaka 在 56 km, Walser Crossing 在 59 km, Beach 在 66 km, Bowman 在 69 km, Wibaux 在 71 km, Amidon 在 73 km, Medora 在 84 km, Glendive 在 91 km, West Glendive 在 93 km,

机场的高度为 Baker Mun机场的

907 m = 2976 ft

附近的机场Baker Mun机场的

跑道 Baker Mun机场的

目前的天气 Baker Mun机场的 - KBHK

ciel dégagé
-7°C

Vent 9 km/h

可提供5天天气预报 Baker 在 2.9 km, Ekalaka 在 56 km, Walser Crossing 在 59 km, Beach 在 66 km, Bowman 在 69 km, Wibaux 在 71 km, Amidon 在 73 km, Medora 在 84 km, Glendive 在 91 km, West Glendive 在 93 km,

METAR Baker Mun机场的 - KBHK

KBHK 101151Z AUTO 13005KT 10SM CLR M07/M10 A2985 RMK AO2 SLP133 T10671100 11006 21067 57014

Baker Mun机场METAR解码 (美国)

KBHK机场发行的METAR日期2020年04月10日至11:51 GMT. 这是一个自动生成的METAR, 警告:此METAR已过期, 已于 89 天 14 小时 5 分钟.

可见度为16.1 km = 10 sm.

温度为-7°C = 19 °F 露点为-10°C = 14 °F 。 这相当于79%的相对湿度。.

QNH是1011 hPa = 29.85 inHg

的风5 kt = 9 km/h, 风向为130°.

天空晴朗

备注 AO2 SLP133 T10671100 11006 21067 57014

TAF Baker Mun机场的 - KBHK

没有TAF

Baker Mun机场的NOTAM

提供的NOTAM不能保证其时事性。 在将其用于飞行准备或在飞行期间使用之前,飞行员是唯一负责验证其有效性的人员。

没有通知

数据源